Latest Weather Observations for Katanning RS

IDW60801

Issued at 2:35 pm WST Saturday 26 July 2014 (issued every 30 minutes, with the page automatically refreshed every 10 minutes)

About weather observations | Map of weather stations | Latest weather observations for WA | Other Formats
Station Details ID: 010916 Name: KATANNING Lat: -33.69 Lon: 117.61 Height: 320.0 m
Data from the previous 72 hours. | See also: Recent months at Katanning RS
Date/Time
WST
Temp
°C
App
Temp
°C
Dew
Point
Rel
Hum
%
Delta-T
°C
Wind Press
QNH
hPa
Press
MSL
hPa
Rain
since 9 am
mm
Dir
 
Spd
km/h
Gust
km/h
Spd
kts
Gust
kts
26/02:30pm 12.8 7.9 8.5 75 2.2 W 24 39 13 21 1013.3 - 7.0
26/02:00pm 12.4 7.1 10.0 85 1.3 W 28 43 15 23 1013.1 1013.2 7.0
26/01:30pm 12.8 8.8 10.3 85 1.3 WNW 22 39 12 21 1012.8 - 6.0
26/01:00pm 12.9 10.3 10.8 87 1.1 WNW 15 26 8 14 1012.6 1012.7 5.6
26/12:30pm 13.5 9.1 10.5 82 1.6 WNW 24 33 13 18 1012.4 - 5.0
26/12:00pm 13.0 9.0 10.5 85 1.3 W 22 28 12 15 1012.0 1012.2 4.8
26/11:30am 13.9 10.8 12.1 89 1.0 WNW 20 35 11 19 1012.1 - 4.2
26/11:00am 14.6 8.5 11.9 84 1.5 NNW 35 46 19 25 1011.5 1011.7 0.2
26/10:30am 14.6 8.8 11.6 82 1.6 NNW 33 48 18 26 1011.6 - 0.0
26/10:00am 14.2 8.5 11.0 81 1.7 NNW 32 46 17 25 1011.6 1011.8 0.0
26/09:30am 13.3 7.3 10.7 84 1.4 NNW 33 46 18 25 1011.8 - 0.0
26/09:00am 13.2 7.3 10.6 84 1.4 NNW 32 43 17 23 1011.8 1012.0 1.2
26/08:30am 12.8 6.9 10.5 86 1.2 NNW 32 43 17 23 1012.1 - 1.2
26/08:00am 12.5 6.9 10.0 85 1.3 NNW 30 44 16 24 1012.0 1012.2 1.2
26/07:30am 12.8 6.9 10.3 85 1.3 NNW 32 44 17 24 1011.9 - 1.2
26/07:00am 12.8 7.6 10.2 84 1.4 NNW 28 43 15 23 1011.8 1012.0 1.2
26/06:30am 12.5 7.6 10.0 85 1.3 NNW 26 35 14 19 1011.9 - 1.2
26/06:00am 12.7 7.9 10.4 86 1.2 NNW 26 37 14 20 1011.9 1012.1 1.2
26/05:30am 12.2 8.5 10.3 88 1.0 NNW 20 32 11 17 1012.0 - 1.2
26/05:00am 12.4 7.6 10.3 87 1.1 NNW 26 39 14 21 1012.2 1012.4 0.8
26/04:30am 12.8 7.9 9.8 82 1.6 NNW 26 35 14 19 1012.4 - 0.6
26/04:00am 12.6 6.8 9.4 81 1.7 NNW 30 41 16 22 1012.6 1012.7 0.6
26/03:30am 12.1 7.4 9.3 83 1.4 NNW 24 32 13 17 1012.6 - 0.6
26/03:00am 12.1 7.0 9.3 83 1.4 NNW 26 37 14 20 1012.9 1013.0 0.6
26/02:30am 12.1 7.0 9.3 83 1.4 NNW 26 37 14 20 1012.9 - 0.6
26/02:00am 12.2 6.7 9.2 82 1.5 NNW 28 44 15 24 1013.0 1013.1 0.6
26/01:30am 12.3 5.9 9.5 83 1.4 NNW 33 44 18 24 1013.3 - 0.6
26/01:00am 12.1 6.7 9.5 84 1.3 NNW 28 43 15 23 1013.6 1013.8 0.6
26/12:30am 12.3 6.2 9.7 84 1.3 NNW 32 48 17 26 1014.0 - 0.6
26/12:00am 12.4 8.7 10.0 85 1.3 NNW 20 32 11 17 1014.4 1014.6 0.6
 
Date/Time
WST
Temp
°C
App
Temp
°C
Dew
Point
Rel
Hum
%
Delta-T
°C
Wind Press
QNH
hPa
Press
MSL
hPa
Rain
since 9 am
mm
Dir
 
Spd
km/h
Gust
km/h
Spd
kts
Gust
kts
25/11:30pm 11.9 7.3 9.8 87 1.1 NNW 24 33 13 18 1014.7 - 0.6
25/11:00pm 12.1 8.3 9.8 86 1.2 NNW 20 32 11 17 1015.2 1015.4 0.4
25/10:30pm 12.8 5.6 9.3 79 1.8 NNW 37 57 20 31 1015.2 - 0.2
25/10:00pm 12.4 6.7 9.8 84 1.3 NNW 30 39 16 21 1015.8 1015.9 0.2
25/09:30pm 12.3 7.5 10.2 87 1.1 NNW 26 41 14 22 1016.1 - 0.2
25/09:00pm 12.6 7.0 10.1 85 1.3 NNW 30 39 16 21 1016.1 1016.2 0.2
25/08:30pm 12.9 8.4 10.1 83 1.5 NNW 24 37 13 20 1016.2 - 0.2
25/08:00pm 12.4 8.2 9.8 84 1.3 NNW 22 35 12 19 1016.3 1016.5 0.2
25/07:30pm 13.3 8.6 10.5 83 1.5 NNW 26 39 14 21 1016.3 - 0.2
25/07:00pm 13.4 9.1 10.6 83 1.5 NNW 24 33 13 18 1016.2 1016.4 0.2
25/06:30pm 13.4 7.7 9.8 79 1.9 NNW 30 43 16 23 1016.1 - 0.2
25/06:00pm 13.9 9.4 9.9 77 2.1 NNW 24 35 13 19 1015.7 1015.8 0.2
25/05:30pm 14.4 9.8 9.8 74 2.4 NNW 24 35 13 19 1015.8 - 0.2
25/05:00pm 14.2 12.2 10.2 77 2.1 N 11 15 6 8 1015.9 1016.0 0.2
25/04:30pm 14.8 10.6 9.8 72 2.6 NW 22 30 12 16 1016.0 - 0.2
25/04:00pm 14.7 9.2 9.3 70 2.8 NW 28 39 15 21 1016.3 1016.5 0.2
25/03:30pm 15.7 10.9 10.2 70 2.9 NNW 26 39 14 21 1016.0 - 0.2
25/03:00pm 15.3 10.6 10.7 74 2.5 NNW 26 39 14 21 1016.1 1016.2 0.2
25/02:30pm 15.9 11.6 10.7 71 2.8 NNW 24 41 13 22 1016.1 - 0.2
25/02:00pm 15.3 11.0 12.1 81 1.8 NNW 26 37 14 20 1016.1 1016.2 0.2
25/01:30pm 14.4 10.8 11.9 85 1.4 NNW 22 37 12 20 1016.4 - 0.2
25/01:00pm 14.8 10.0 10.2 74 2.4 NNW 26 37 14 20 1016.7 1016.9 0.0
25/12:30pm 15.4 10.0 10.8 74 2.5 NNW 30 41 16 22 1017.3 - 0.0
25/12:00pm 14.5 10.2 10.7 78 2.0 NNW 24 33 13 18 1017.8 1018.0 0.0
25/11:30am 14.4 10.6 11.0 80 1.8 NNW 22 32 12 17 1018.3 - 0.0
25/11:00am 13.4 8.7 10.6 83 1.5 NNW 26 37 14 20 1018.7 1018.9 0.0
25/10:30am 13.2 9.7 10.9 86 1.2 NNW 20 28 11 15 1019.0 - 0.0
25/10:00am 12.1 8.4 10.3 89 0.9 NNW 20 28 11 15 1019.3 1019.5 0.0
25/09:30am 11.6 7.8 9.7 88 1.0 NNW 20 32 11 17 1019.5 - 0.0
25/09:00am 11.2 8.2 9.3 88 1.0 N 15 24 8 13 1019.3 1019.5 0.4
25/08:30am 10.5 7.0 8.6 88 0.9 NNW 17 24 9 13 1019.5 - 0.4
25/08:00am 9.7 6.4 8.1 90 0.8 NNW 15 22 8 12 1019.4 1019.6 0.4
25/07:30am 9.2 5.8 7.6 90 0.8 NNW 15 20 8 11 1019.4 - 0.4
25/07:00am 9.0 6.3 7.5 90 0.7 N 11 17 6 9 1019.1 1019.3 0.4
25/06:30am 8.5 6.1 7.0 90 0.7 NNW 9 13 5 7 1019.0 - 0.4
25/06:00am 8.7 5.9 7.0 89 0.8 N 11 15 6 8 1018.7 1018.9 0.4
25/05:30am 9.0 6.3 7.3 89 0.8 N 11 15 6 8 1018.8 - 0.4
25/05:00am 9.3 6.7 7.6 89 0.8 N 11 17 6 9 1018.7 1018.9 0.4
25/04:30am 9.7 6.8 8.1 90 0.8 N 13 19 7 10 1019.0 - 0.4
25/04:00am 9.7 6.8 8.0 89 0.8 NNW 13 20 7 11 1019.3 1019.5 0.0
25/03:30am 10.1 6.8 8.0 87 1.0 NW 15 20 8 11 1019.5 - 0.0
25/03:00am 9.6 5.8 7.5 87 1.0 NW 17 22 9 12 1019.5 1019.7 0.0
25/02:30am 8.4 5.5 6.4 87 0.9 NNW 11 17 6 9 1019.4 - 0.0
25/02:00am 8.1 5.8 5.6 84 1.1 N 7 9 4 5 1019.6 1019.8 0.0
25/01:30am 9.0 6.4 6.1 82 1.4 N 9 11 5 6 1019.6 - 0.0
25/01:00am 8.9 6.3 6.3 84 1.2 NNW 9 9 5 5 1019.9 1020.1 0.0
25/12:30am 8.4 6.1 5.0 79 1.5 NNW 6 7 3 4 1019.9 - 0.0
25/12:00am 9.4 6.7 5.4 76 1.8 NNW 9 11 5 6 1020.2 1020.4 0.0
 
Date/Time
WST
Temp
°C
App
Temp
°C
Dew
Point
Rel
Hum
%
Delta-T
°C
Wind Press
QNH
hPa
Press
MSL
hPa
Rain
since 9 am
mm
Dir
 
Spd
km/h
Gust
km/h
Spd
kts
Gust
kts
24/11:30pm 10.0 7.7 5.8 75 2.0 NW 7 9 4 5 1020.5 - 0.0
24/11:00pm 9.6 6.9 5.8 77 1.8 NNW 9 9 5 5 1020.7 1020.9 0.0
24/10:30pm 9.3 6.9 5.3 76 1.8 NW 7 9 4 5 1020.7 - 0.0
24/10:00pm 8.6 5.7 4.8 77 1.7 NNW 9 11 5 6 1020.9 1021.1 0.0
24/09:30pm 8.5 5.8 3.9 73 2.0 NW 7 9 4 5 1020.8 - 0.0
24/09:00pm 8.7 6.0 3.7 71 2.2 NW 7 9 4 5 1020.7 1020.9 0.0
24/08:30pm 9.3 6.4 4.5 72 2.2 NNW 9 9 5 5 1020.9 - 0.0
24/08:00pm 9.1 6.4 3.7 69 2.4 NW 7 7 4 4 1020.9 1021.1 0.0
24/07:30pm 8.5 5.8 3.9 73 2.0 NW 7 7 4 4 1020.9 - 0.0
24/07:00pm 7.8 5.2 4.0 77 1.7 NNW 7 7 4 4 1020.8 1021.0 0.0
24/06:30pm 8.9 6.5 4.1 72 2.1 NW 6 6 3 3 1020.6 - 0.0
24/06:00pm 10.8 8.9 4.7 66 2.8 WNW 4 6 2 3 1020.4 1020.6 0.0
24/05:30pm 11.2 9.4 5.3 67 2.8 WNW 4 6 2 3 1020.1 - 0.0
24/05:00pm 12.4 10.3 5.8 64 3.1 W 6 7 3 4 1019.9 1020.1 0.0
24/04:30pm 13.1 10.5 6.0 62 3.4 W 9 13 5 7 1019.9 - 0.0
24/04:00pm 13.7 10.2 5.6 58 3.9 W 13 20 7 11 1019.7 1019.9 0.0
24/03:30pm 13.7 9.8 5.3 57 4.0 W 15 20 8 11 1019.7 - 0.0
24/03:00pm 14.1 10.3 6.0 58 3.9 W 15 20 8 11 1019.4 1019.6 0.0
24/02:30pm 14.5 10.1 6.6 59 3.9 W 19 24 10 13 1019.5 - 0.0
24/02:00pm 13.1 8.3 5.5 60 3.6 W 20 30 11 16 1019.7 1019.9 0.0
24/01:30pm 13.8 10.5 6.4 61 3.6 W 13 20 7 11 1019.7 - 0.0
24/01:00pm 13.5 9.4 6.4 62 3.4 W 17 24 9 13 1020.1 1020.3 0.0
24/12:30pm 13.6 9.3 6.9 64 3.3 W 19 26 10 14 1020.3 - 0.0
24/12:00pm 13.3 9.2 6.4 63 3.3 WSW 17 24 9 13 1020.4 1020.6 0.0
24/11:30am 12.3 7.8 5.9 65 3.1 WSW 19 22 10 12 1020.6 - 0.0
24/11:00am 12.9 9.1 7.4 69 2.7 W 17 22 9 12 1020.7 1020.9 0.0
24/10:30am 12.2 8.4 7.7 74 2.2 W 17 22 9 12 1020.7 - 0.0
24/10:00am 11.1 7.6 7.2 77 1.9 W 15 22 8 12 1020.9 1021.1 0.0
24/09:30am 10.1 7.1 7.9 86 1.1 W 13 19 7 10 1020.8 - 0.0
24/09:00am 9.1 5.7 7.5 90 0.8 W 15 20 8 11 1020.6 1020.8 0.6
24/08:30am 8.5 5.4 7.3 92 0.6 WNW 13 19 7 10 1020.2 - 0.6
24/08:00am 7.6 4.7 6.4 92 0.6 WNW 11 15 6 8 1019.8 1020.0 0.6
24/07:30am 7.3 4.3 5.9 91 0.6 WNW 11 15 6 8 1019.4 - 0.6
24/07:00am 7.5 4.1 6.1 91 0.6 W 13 17 7 9 1019.3 1019.5 0.6
24/06:30am 7.8 4.5 6.4 91 0.7 W 13 19 7 10 1019.0 - 0.6
24/06:00am 8.1 4.5 6.7 91 0.7 WNW 15 19 8 10 1018.7 1018.9 0.6
24/05:30am 7.9 4.6 6.4 90 0.7 W 13 19 7 10 1018.6 - 0.6
24/05:00am 8.2 5.0 6.8 91 0.7 W 13 19 7 10 1018.5 1018.7 0.6
24/04:30am 8.3 5.5 6.8 90 0.7 W 11 13 6 7 1018.5 - 0.6
24/04:00am 8.2 5.7 6.7 90 0.7 W 9 11 5 6 1018.3 1018.5 0.6
24/03:30am 8.4 5.9 6.7 89 0.8 W 9 13 5 7 1018.2 - 0.6
24/03:00am 9.5 7.3 7.9 90 0.8 WSW 9 13 5 7 1018.2 1018.4 0.4
24/02:30am 9.7 7.2 8.1 90 0.8 W 11 15 6 8 1018.0 - 0.4
24/02:00am 10.0 6.8 8.3 89 0.8 W 15 24 8 13 1017.8 1018.0 0.4
24/01:30am 9.9 5.9 8.2 89 0.8 W 19 26 10 14 1017.8 - 0.4
24/01:00am 9.8 6.5 8.2 90 0.8 W 15 22 8 12 1017.7 1017.9 0.4
24/12:30am 9.3 5.5 7.7 90 0.8 WNW 17 26 9 14 1017.6 - 0.0
24/12:00am 8.4 4.8 6.7 89 0.8 NW 15 20 8 11 1017.8 1018.0 0.0
 
Date/Time
WST
Temp
°C
App
Temp
°C
Dew
Point
Rel
Hum
%
Delta-T
°C
Wind Press
QNH
hPa
Press
MSL
hPa
Rain
since 9 am
mm
Dir
 
Spd
km/h
Gust
km/h
Spd
kts
Gust
kts
23/11:30pm 8.4 4.8 6.7 89 0.8 NW 15 20 8 11 1017.9 - 0.0
23/11:00pm 8.2 4.5 6.5 89 0.8 NW 15 24 8 13 1018.0 1018.2 0.0
23/10:30pm 8.3 4.3 6.6 89 0.8 NW 17 22 9 12 1018.1 - 0.0
23/10:00pm 8.5 4.9 6.6 88 0.9 NW 15 20 8 11 1018.5 1018.7 0.0
23/09:30pm 8.6 4.6 6.6 87 0.9 NW 17 24 9 13 1018.6 - 0.0
23/09:00pm 8.7 5.0 6.3 85 1.1 NW 15 19 8 10 1018.6 1018.8 0.0
23/08:30pm 9.0 5.6 5.9 81 1.4 NW 13 17 7 9 1018.8 - 0.0
23/08:00pm 9.4 6.4 5.8 78 1.7 NW 11 19 6 10 1018.8 1019.1 0.0
23/07:30pm 10.0 7.4 6.2 77 1.8 WNW 9 13 5 7 1019.0 - 0.0
23/07:00pm 10.1 7.1 6.1 76 1.9 WNW 11 13 6 7 1019.1 1019.3 0.0
23/06:30pm 9.6 6.1 5.4 75 1.9 W 13 19 7 10 1019.0 - 0.0
23/06:00pm 10.1 6.6 5.3 72 2.2 WNW 13 17 7 9 1018.4 1018.6 0.0
23/05:30pm 10.6 7.1 5.4 70 2.4 WNW 13 19 7 10 1018.3 - 0.0
23/05:00pm 11.5 8.0 5.4 66 2.9 W 13 17 7 9 1018.4 1018.6 0.0
23/04:30pm 12.1 8.7 5.7 65 3.0 W 13 20 7 11 1018.5 - 0.0
23/04:00pm 12.1 7.7 4.8 61 3.4 W 17 24 9 13 1018.1 1018.3 0.0
23/03:30pm 11.7 7.4 5.3 65 3.0 W 17 26 9 14 1018.2 - 0.0
23/03:00pm 12.3 7.0 5.0 61 3.4 W 22 30 12 16 1018.3 1018.5 0.0

Other Formats:

Comma delimited format used in spreadsheet applications
http://www.bom.gov.au/fwo/IDW60801/IDW60801.94641.axf

JavaScript Object Notation format (JSON) in row-major order
http://www.bom.gov.au/fwo/IDW60801/IDW60801.94641.json